createdAt,value
2022-11-18T00:01:14.178Z,52.49
2022-11-18T00:03:41.628Z,52.31
2022-11-18T00:06:11.464Z,52.67
2022-11-18T00:08:38.197Z,52.47
2022-11-18T00:11:34.179Z,52.52
2022-11-18T00:14:19.058Z,52.72
2022-11-18T00:16:57.159Z,52.44
2022-11-18T00:19:33.134Z,52.56
2022-11-18T00:22:01.585Z,52.68
2022-11-18T00:24:28.653Z,52.36
2022-11-18T00:26:55.721Z,52.25
2022-11-18T00:29:23.552Z,52.67
2022-11-18T00:31:50.322Z,52.65
2022-11-18T00:34:18.167Z,52.33
2022-11-18T00:36:45.838Z,52.63
2022-11-18T00:39:14.498Z,52.50
2022-11-18T00:42:00.041Z,52.42
2022-11-18T00:44:27.040Z,52.23
2022-11-18T00:46:53.847Z,52.45
2022-11-18T00:49:20.651Z,52.18
2022-11-18T00:51:47.295Z,52.25
2022-11-18T00:54:14.009Z,52.59
2022-11-18T00:56:40.707Z,52.54
2022-11-18T00:59:07.567Z,52.08
2022-11-18T01:01:34.376Z,52.18
2022-11-18T01:04:01.228Z,52.37
2022-11-18T01:06:28.235Z,52.44
2022-11-18T01:08:55.006Z,52.18
2022-11-18T01:11:40.460Z,52.27
2022-11-18T01:14:07.235Z,52.53
2022-11-18T01:16:33.867Z,52.39
2022-11-18T01:19:00.842Z,52.39
2022-11-18T01:21:29.050Z,52.21
2022-11-18T01:23:55.896Z,52.00
2022-11-18T01:26:22.607Z,52.42
2022-11-18T01:28:49.457Z,52.00
2022-11-18T01:31:18.668Z,52.31
2022-11-18T01:33:46.682Z,52.15
2022-11-18T01:36:18.347Z,52.38
2022-11-18T01:38:45.111Z,52.33
2022-11-18T01:41:12.241Z,52.10
2022-11-18T01:43:52.839Z,52.05
2022-11-18T01:46:19.996Z,52.36
2022-11-18T01:48:49.275Z,52.07
2022-11-18T01:51:17.980Z,51.89
2022-11-18T01:53:56.245Z,52.19
2022-11-18T01:56:25.801Z,51.97
2022-11-18T01:58:53.679Z,52.30
2022-11-18T02:01:20.543Z,51.88
2022-11-18T02:03:48.753Z,51.98
2022-11-18T02:06:16.069Z,52.18
2022-11-18T02:08:42.804Z,52.29
2022-11-18T02:11:35.099Z,52.17
2022-11-18T02:14:05.195Z,51.93
2022-11-18T02:17:17.145Z,52.24
2022-11-18T02:19:46.941Z,51.70
2022-11-18T02:22:28.695Z,51.71
2022-11-18T02:25:10.052Z,52.17
2022-11-18T02:27:54.595Z,52.10
2022-11-18T02:30:21.578Z,51.93
2022-11-18T02:32:48.200Z,51.77
2022-11-18T02:35:47.463Z,51.85
2022-11-18T02:38:23.713Z,52.01
2022-11-18T02:40:55.588Z,52.15
2022-11-18T02:43:26.880Z,51.69
2022-11-18T02:45:56.668Z,52.01
2022-11-18T02:48:25.087Z,51.73
2022-11-18T02:50:52.790Z,51.78
2022-11-18T02:53:21.382Z,51.69
2022-11-18T02:55:48.640Z,51.66
2022-11-18T02:58:18.015Z,51.70
2022-11-18T03:00:45.023Z,52.00
2022-11-18T03:03:31.296Z,51.96
2022-11-18T03:06:02.676Z,52.01
2022-11-18T03:08:35.315Z,51.93
2022-11-18T03:11:14.100Z,52.06
2022-11-18T03:13:48.401Z,51.78
2022-11-18T03:16:20.048Z,52.01
2022-11-18T03:19:10.279Z,52.11
2022-11-18T03:21:44.629Z,51.79
2022-11-18T03:24:19.024Z,51.81
2022-11-18T03:26:49.724Z,51.81
2022-11-18T03:29:27.197Z,52.05
2022-11-18T03:32:00.895Z,51.98
2022-11-18T03:34:30.850Z,51.90
2022-11-18T03:37:10.053Z,52.14
2022-11-18T03:39:46.623Z,51.84
2022-11-18T03:42:29.573Z,52.11
2022-11-18T03:45:01.655Z,52.07
2022-11-18T03:48:12.004Z,52.25
2022-11-18T03:51:02.956Z,51.84
2022-11-18T03:53:33.749Z,51.87
2022-11-18T03:56:17.722Z,52.04
2022-11-18T03:59:12.396Z,52.15
2022-11-18T04:01:58.190Z,52.17
2022-11-18T04:04:25.672Z,52.20
2022-11-18T04:07:09.943Z,51.91
2022-11-18T04:09:42.517Z,52.29
2022-11-18T04:12:13.420Z,51.79
2022-11-18T04:14:42.995Z,52.20
2022-11-18T04:17:14.920Z,51.78
2022-11-18T04:19:42.127Z,51.87
2022-11-18T04:22:09.640Z,51.84
2022-11-18T04:24:36.562Z,51.88
2022-11-18T04:27:03.664Z,51.87
2022-11-18T04:29:31.456Z,52.11
2022-11-18T04:31:59.498Z,52.11
2022-11-18T04:34:26.262Z,51.81
2022-11-18T04:36:53.197Z,52.22
2022-11-18T04:39:20.487Z,51.85
2022-11-18T04:41:56.162Z,52.22
2022-11-18T04:44:30.828Z,52.27
2022-11-18T04:47:00.980Z,51.80
2022-11-18T04:49:28.883Z,52.12
2022-11-18T04:51:56.388Z,51.80
2022-11-18T04:54:24.388Z,52.10
2022-11-18T04:56:52.828Z,52.22
2022-11-18T04:59:22.863Z,51.76
2022-11-18T05:01:50.361Z,52.17
2022-11-18T05:04:23.297Z,52.11
2022-11-18T05:06:50.757Z,51.81
2022-11-18T05:09:17.830Z,52.26
2022-11-18T05:12:03.920Z,51.91
2022-11-18T05:14:30.989Z,52.13
2022-11-18T05:16:58.972Z,51.84
2022-11-18T05:19:26.004Z,51.85
2022-11-18T05:21:53.172Z,52.08
2022-11-18T05:24:20.299Z,52.23
2022-11-18T05:26:47.019Z,52.35
2022-11-18T05:29:13.774Z,51.99
2022-11-18T05:31:40.428Z,51.88
2022-11-18T05:34:07.175Z,52.27
2022-11-18T05:36:34.024Z,52.25
2022-11-18T05:39:01.415Z,52.23
2022-11-18T05:41:46.698Z,51.93
2022-11-18T05:44:13.439Z,52.23
2022-11-18T05:46:40.213Z,52.12
2022-11-18T05:49:07.848Z,51.92
2022-11-18T05:51:35.110Z,52.28
2022-11-18T05:54:05.004Z,51.97
2022-11-18T05:56:37.153Z,51.84
2022-11-18T05:59:04.515Z,51.84
2022-11-18T06:01:57.365Z,52.21
2022-11-18T06:04:46.153Z,51.93
2022-11-18T06:07:33.505Z,51.85
2022-11-18T06:10:05.154Z,51.93
2022-11-18T06:12:37.507Z,52.49
2022-11-18T06:15:13.658Z,52.33
2022-11-18T06:18:23.501Z,53.25
2022-11-18T06:20:51.673Z,53.43
2022-11-18T06:23:18.724Z,53.58
2022-11-18T06:25:45.730Z,54.04
2022-11-18T06:28:14.593Z,54.12
2022-11-18T06:30:41.408Z,54.18
2022-11-18T06:33:08.561Z,54.05
2022-11-18T06:35:36.217Z,54.20
2022-11-18T06:38:04.184Z,54.58
2022-11-18T06:40:34.654Z,54.21
2022-11-18T06:43:27.353Z,54.45
2022-11-18T06:46:12.867Z,54.77
2022-11-18T06:48:39.644Z,54.68
2022-11-18T06:51:07.501Z,54.70
2022-11-18T06:53:35.135Z,54.88
2022-11-18T06:56:09.286Z,54.49
2022-11-18T06:58:36.523Z,54.65
2022-11-18T07:01:23.715Z,54.62
2022-11-18T07:03:51.271Z,54.82
2022-11-18T07:06:21.017Z,54.93
2022-11-18T07:08:48.551Z,54.68
2022-11-18T07:11:17.548Z,55.02
2022-11-18T07:13:45.190Z,55.18
2022-11-18T07:16:16.778Z,54.95
2022-11-18T07:18:45.000Z,55.18
2022-11-18T07:21:14.595Z,55.35
2022-11-18T07:23:42.453Z,55.16
2022-11-18T07:26:10.267Z,55.64
2022-11-18T07:28:37.447Z,55.49
2022-11-18T07:31:12.859Z,55.53
2022-11-18T07:33:40.845Z,55.49
2022-11-18T07:36:12.997Z,55.79
2022-11-18T07:38:39.999Z,55.51
2022-11-18T07:41:27.189Z,56.18
2022-11-18T07:44:00.290Z,55.99
2022-11-18T07:46:30.952Z,56.22
2022-11-18T07:48:59.967Z,56.26
2022-11-18T07:51:28.730Z,55.88
2022-11-18T07:53:55.891Z,56.18
2022-11-18T07:56:23.236Z,56.05
2022-11-18T07:58:54.640Z,55.90
2022-11-18T08:01:23.302Z,55.71
2022-11-18T08:03:50.562Z,55.53
2022-11-18T08:06:19.000Z,55.99
2022-11-18T08:08:45.935Z,56.29
2022-11-18T08:11:20.429Z,56.43
2022-11-18T08:13:49.052Z,56.22
2022-11-18T08:16:18.707Z,56.85
2022-11-18T08:18:45.961Z,56.95
2022-11-18T08:21:19.922Z,56.84
2022-11-18T08:23:55.127Z,56.47
2022-11-18T08:26:27.415Z,56.08
2022-11-18T08:28:55.644Z,56.35
2022-11-18T08:31:25.766Z,55.87
2022-11-18T08:34:00.957Z,56.05
2022-11-18T08:36:29.674Z,55.71
2022-11-18T08:38:57.298Z,55.54
2022-11-18T08:41:39.256Z,56.25
2022-11-18T08:44:07.295Z,55.90
2022-11-18T08:46:34.044Z,55.76
2022-11-18T08:49:01.023Z,55.49
2022-11-18T08:51:28.565Z,55.26
2022-11-18T08:53:55.843Z,55.58
2022-11-18T08:56:24.394Z,55.93
2022-11-18T08:58:52.193Z,55.61
2022-11-18T09:01:19.038Z,55.30
2022-11-18T09:03:45.852Z,55.44
2022-11-18T09:06:15.269Z,55.43
2022-11-18T09:08:49.590Z,55.25
2022-11-18T09:11:30.027Z,55.62
2022-11-18T09:17:09.829Z,55.21
2022-11-18T09:19:49.577Z,55.17
2022-11-18T09:22:35.292Z,55.38
2022-11-18T09:25:25.283Z,55.19
2022-11-18T09:27:59.960Z,55.25
2022-11-18T09:30:38.882Z,54.86
2022-11-18T09:33:20.504Z,54.69
2022-11-18T09:35:55.781Z,55.23
2022-11-18T09:38:29.851Z,55.03
2022-11-18T09:41:42.197Z,55.12
2022-11-18T09:44:33.647Z,55.05
2022-11-18T09:47:33.110Z,54.85
2022-11-18T09:50:48.915Z,54.97
2022-11-18T09:53:35.947Z,54.96
2022-11-18T09:56:27.903Z,55.00
2022-11-18T09:59:07.627Z,54.91
2022-11-18T10:01:45.796Z,54.76
2022-11-18T10:04:27.877Z,54.54
2022-11-18T10:07:01.689Z,54.80
2022-11-18T10:09:47.762Z,54.83
2022-11-18T10:12:45.964Z,54.48
2022-11-18T10:15:43.322Z,54.87
2022-11-18T10:18:58.319Z,54.89
2022-11-18T10:22:15.622Z,54.73
2022-11-18T10:25:16.727Z,54.22
2022-11-18T10:27:57.440Z,53.92
2022-11-18T10:30:36.406Z,54.19
2022-11-18T10:33:29.091Z,53.89
2022-11-18T10:36:40.996Z,53.96
2022-11-18T10:39:20.312Z,54.24
2022-11-18T10:42:30.831Z,54.15
2022-11-18T10:45:28.340Z,54.12
2022-11-18T10:48:19.853Z,54.18
2022-11-18T10:50:59.694Z,54.02
2022-11-18T10:53:43.741Z,54.62
2022-11-18T10:56:27.852Z,54.62
2022-11-18T10:59:21.056Z,54.16
2022-11-18T11:02:19.374Z,54.28
2022-11-18T11:04:53.138Z,54.38
2022-11-18T11:07:37.569Z,54.45
2022-11-18T11:10:14.421Z,54.54
2022-11-18T11:13:18.695Z,54.67
2022-11-18T11:15:59.563Z,54.63
2022-11-18T11:18:44.965Z,54.37
2022-11-18T11:21:20.553Z,54.54
2022-11-18T11:24:27.136Z,54.42
2022-11-18T11:30:43.608Z,53.93
2022-11-18T11:33:30.129Z,54.08
2022-11-18T11:36:11.047Z,53.92
2022-11-18T11:38:53.432Z,53.98
2022-11-18T11:41:28.759Z,54.41
2022-11-18T11:44:14.536Z,53.84
2022-11-18T11:47:16.342Z,53.56
2022-11-18T11:50:10.291Z,53.86
2022-11-18T11:52:49.813Z,53.74
2022-11-18T11:55:55.504Z,54.21
2022-11-18T11:58:48.707Z,54.26
2022-11-18T12:01:21.866Z,54.32
2022-11-18T12:04:16.965Z,54.70
2022-11-18T12:06:46.911Z,54.82
2022-11-18T12:09:21.748Z,54.94
2022-11-18T12:11:57.049Z,54.53
2022-11-18T12:14:40.009Z,54.67
2022-11-18T12:17:25.183Z,54.52
2022-11-18T12:19:51.941Z,54.69
2022-11-18T12:22:18.725Z,54.69
2022-11-18T12:24:45.502Z,54.47
2022-11-18T12:27:30.608Z,54.48
2022-11-18T12:30:01.585Z,54.42
2022-11-18T12:32:42.364Z,54.46
2022-11-18T12:35:12.338Z,54.68
2022-11-18T12:37:51.385Z,54.50
2022-11-18T12:40:48.757Z,54.84
2022-11-18T12:43:40.662Z,54.07
2022-11-18T12:46:07.457Z,53.97
2022-11-18T12:48:37.500Z,54.19
2022-11-18T12:51:16.344Z,54.35
2022-11-18T12:53:45.649Z,54.26
2022-11-18T12:56:18.597Z,54.19
2022-11-18T12:58:46.301Z,54.22
2022-11-18T13:01:15.832Z,54.02
2022-11-18T13:03:42.936Z,54.19
2022-11-18T13:06:28.869Z,54.55
2022-11-18T13:09:01.982Z,54.20
2022-11-18T13:11:46.087Z,54.22
2022-11-18T13:14:44.701Z,54.18
2022-11-18T13:17:50.430Z,54.60
2022-11-18T13:20:33.691Z,54.30
2022-11-18T13:23:21.566Z,53.95
2022-11-18T13:25:49.694Z,54.25
2022-11-18T13:28:28.480Z,54.22
2022-11-18T13:31:11.740Z,53.93
2022-11-18T13:33:39.822Z,53.45
2022-11-18T13:36:18.257Z,53.73
2022-11-18T13:39:03.632Z,54.19
2022-11-18T13:41:33.014Z,53.92
2022-11-18T13:44:25.051Z,53.94
2022-11-18T13:46:56.293Z,54.08
2022-11-18T13:49:37.551Z,54.15
2022-11-18T13:52:04.613Z,53.96
2022-11-18T13:54:31.498Z,53.85
2022-11-18T13:56:58.334Z,53.84
2022-11-18T13:59:25.166Z,54.28
2022-11-18T14:01:56.443Z,54.38
2022-11-18T14:04:26.356Z,54.21
2022-11-18T14:06:53.480Z,54.22
2022-11-18T14:09:27.136Z,54.35
2022-11-18T14:12:13.749Z,54.34
2022-11-18T14:14:42.191Z,54.84
2022-11-18T14:17:18.350Z,54.72
2022-11-18T14:19:46.325Z,54.82
2022-11-18T14:22:23.113Z,55.26
2022-11-18T14:25:28.440Z,55.49
2022-11-18T14:27:57.696Z,55.78
2022-11-18T14:30:29.485Z,55.31
2022-11-18T14:33:18.941Z,55.56
2022-11-18T14:35:51.615Z,55.68
2022-11-18T14:38:37.061Z,55.52
2022-11-18T14:41:12.319Z,55.20
2022-11-18T14:43:39.149Z,54.93
2022-11-18T14:46:21.678Z,54.79
2022-11-18T14:48:48.465Z,54.55
2022-11-18T14:51:16.311Z,54.45
2022-11-18T14:53:43.783Z,54.21
2022-11-18T14:56:36.569Z,54.84
2022-11-18T14:59:03.396Z,55.05
2022-11-18T15:01:31.016Z,54.76
2022-11-18T15:03:58.201Z,54.91
2022-11-18T15:06:24.953Z,54.75
2022-11-18T15:08:53.005Z,54.51
2022-11-18T15:11:19.905Z,54.38
2022-11-18T15:13:46.880Z,54.48
2022-11-18T15:16:19.494Z,54.39
2022-11-18T15:18:48.254Z,54.73
2022-11-18T15:21:15.682Z,54.45
2022-11-18T15:23:42.883Z,54.80
2022-11-18T15:26:20.650Z,54.71
2022-11-18T15:28:48.613Z,54.69
2022-11-18T15:31:15.913Z,55.30
2022-11-18T15:33:42.866Z,54.99
2022-11-18T15:36:15.423Z,55.24
2022-11-18T15:38:42.646Z,55.14
2022-11-18T15:41:21.114Z,55.05
2022-11-18T15:43:49.171Z,55.01
2022-11-18T15:46:17.503Z,54.98
2022-11-18T15:48:44.261Z,55.27
2022-11-18T15:51:12.451Z,55.03
2022-11-18T15:53:39.514Z,55.57
2022-11-18T15:56:25.281Z,55.51
2022-11-18T15:58:58.676Z,55.39
2022-11-18T16:01:27.256Z,55.88
2022-11-18T16:03:53.990Z,55.97
2022-11-18T16:06:21.273Z,55.55
2022-11-18T16:08:48.010Z,55.93
2022-11-18T16:11:34.831Z,55.61
2022-11-18T16:14:06.593Z,56.38
2022-11-18T16:16:33.999Z,56.56
2022-11-18T16:19:03.626Z,56.57
2022-11-18T16:21:33.349Z,56.46
2022-11-18T16:24:01.879Z,56.81
2022-11-18T16:26:30.913Z,56.99
2022-11-18T16:29:00.978Z,57.07
2022-11-18T16:31:39.845Z,57.13
2022-11-18T16:34:16.062Z,57.15
2022-11-18T16:36:45.049Z,56.96
2022-11-18T16:39:13.017Z,56.85
2022-11-18T16:41:40.771Z,56.62
2022-11-18T16:44:09.818Z,57.15
2022-11-18T16:46:39.217Z,57.08
2022-11-18T16:49:06.709Z,56.81
2022-11-18T16:51:35.014Z,56.88
2022-11-18T16:54:07.089Z,56.66
2022-11-18T16:56:35.109Z,56.58
2022-11-18T16:59:05.331Z,56.44
2022-11-18T17:01:33.208Z,56.48
2022-11-18T17:04:03.092Z,56.33
2022-11-18T17:06:31.340Z,56.39
2022-11-18T17:08:59.185Z,56.41
2022-11-18T17:11:26.483Z,56.42
2022-11-18T17:13:57.745Z,56.60
2022-11-18T17:16:26.472Z,56.56
2022-11-18T17:18:57.719Z,56.08
2022-11-18T17:21:25.241Z,55.97
2022-11-18T17:23:51.894Z,56.21
2022-11-18T17:26:21.053Z,56.30
2022-11-18T17:28:47.974Z,56.26
2022-11-18T17:31:19.642Z,56.06
2022-11-18T17:33:47.398Z,56.11
2022-11-18T17:36:16.877Z,56.10
2022-11-18T17:38:45.717Z,55.71
2022-11-18T17:41:38.543Z,56.08
2022-11-18T17:44:07.717Z,55.92
2022-11-18T17:46:38.194Z,55.74
2022-11-18T17:49:07.526Z,55.86
2022-11-18T17:51:34.480Z,56.05
2022-11-18T17:54:01.575Z,55.91
2022-11-18T17:56:28.343Z,55.86
2022-11-18T17:58:55.763Z,55.86
2022-11-18T18:01:23.126Z,55.78
2022-11-18T18:03:50.206Z,55.76
2022-11-18T18:06:17.496Z,55.63
2022-11-18T18:08:44.453Z,55.36
2022-11-18T18:11:17.346Z,55.64
2022-11-18T18:14:03.034Z,55.63
2022-11-18T18:16:32.098Z,55.55
2022-11-18T18:18:59.673Z,55.20
2022-11-18T18:21:26.678Z,55.16
2022-11-18T18:23:53.846Z,55.03
2022-11-18T18:26:20.760Z,55.35
2022-11-18T18:28:47.953Z,55.23
2022-11-18T18:31:16.694Z,55.02
2022-11-18T18:33:43.555Z,54.92
2022-11-18T18:36:18.060Z,55.33
2022-11-18T18:38:45.553Z,54.89
2022-11-18T18:41:16.437Z,55.25
2022-11-18T18:43:43.480Z,55.13
2022-11-18T18:46:33.892Z,55.06
2022-11-18T18:49:08.812Z,54.93
2022-11-18T18:51:37.280Z,54.61
2022-11-18T18:54:04.551Z,54.66
2022-11-18T18:56:32.325Z,54.66
2022-11-18T18:58:59.522Z,55.03
2022-11-18T19:01:27.687Z,54.83
2022-11-18T19:03:59.698Z,54.75
2022-11-18T19:09:16.038Z,54.74
2022-11-18T19:12:01.519Z,54.68
2022-11-18T19:14:28.684Z,54.84
2022-11-18T19:16:55.807Z,54.86
2022-11-18T19:19:44.014Z,54.43
2022-11-18T19:22:12.411Z,54.66
2022-11-18T19:24:55.041Z,54.41
2022-11-18T19:27:28.639Z,54.38
2022-11-18T19:29:56.326Z,54.65
2022-11-18T19:32:23.492Z,54.53
2022-11-18T19:34:50.275Z,54.79
2022-11-18T19:37:17.047Z,54.65
2022-11-18T19:39:43.839Z,54.62
2022-11-18T19:42:11.134Z,54.44
2022-11-18T19:44:39.068Z,54.78
2022-11-18T19:47:05.930Z,54.61
2022-11-18T19:49:32.653Z,54.35
2022-11-18T19:51:59.398Z,54.46
2022-11-18T19:54:26.100Z,54.66
2022-11-18T19:56:52.880Z,54.77
2022-11-18T19:59:19.769Z,54.35
2022-11-18T20:01:46.799Z,54.35
2022-11-18T20:04:13.499Z,54.73
2022-11-18T20:06:40.502Z,54.79
2022-11-18T20:09:08.179Z,54.55
2022-11-18T20:11:35.046Z,54.50
2022-11-18T20:14:03.304Z,54.41
2022-11-18T20:16:30.595Z,54.64
2022-11-18T20:19:07.791Z,54.73
2022-11-18T20:21:36.294Z,54.42
2022-11-18T20:24:04.634Z,54.36
2022-11-18T20:26:36.717Z,54.54
2022-11-18T20:29:04.009Z,54.64
2022-11-18T20:31:33.261Z,54.29
2022-11-18T20:34:00.825Z,54.25
2022-11-18T20:36:32.661Z,54.33
2022-11-18T20:39:02.117Z,54.73
2022-11-18T20:41:33.296Z,54.60
2022-11-18T20:44:01.267Z,54.19
2022-11-18T20:46:28.081Z,54.35
2022-11-18T20:48:55.792Z,54.67
2022-11-18T20:51:24.605Z,54.58
2022-11-18T20:53:53.073Z,54.17
2022-11-18T20:56:22.161Z,54.15
2022-11-18T20:58:49.180Z,54.13
2022-11-18T21:01:21.839Z,54.18
2022-11-18T21:03:53.510Z,54.05
2022-11-18T21:06:21.525Z,54.50
2022-11-18T21:08:48.391Z,54.43
2022-11-18T21:11:15.327Z,54.56
2022-11-18T21:14:01.523Z,54.35
2022-11-18T21:16:28.454Z,54.13
2022-11-18T21:18:55.440Z,54.18
2022-11-18T21:21:40.704Z,54.38
2022-11-18T21:24:08.335Z,54.09
2022-11-18T21:26:36.179Z,54.41
2022-11-18T21:29:05.494Z,54.33
2022-11-18T21:31:32.931Z,54.04
2022-11-18T21:33:59.928Z,54.02
2022-11-18T21:36:27.777Z,53.97
2022-11-18T21:38:55.370Z,53.93
2022-11-18T21:41:22.097Z,53.79
2022-11-18T21:44:05.983Z,54.28
2022-11-18T21:46:34.079Z,54.11
2022-11-18T21:49:00.949Z,53.95
2022-11-18T21:51:28.291Z,54.14
2022-11-18T21:53:55.533Z,54.14
2022-11-18T21:56:25.645Z,53.71
2022-11-18T21:58:52.910Z,53.82
2022-11-18T22:01:25.130Z,53.77
2022-11-18T22:03:55.690Z,53.94
2022-11-18T22:06:27.860Z,53.86
2022-11-18T22:08:58.618Z,53.99
2022-11-18T22:11:25.947Z,53.52
2022-11-18T22:13:53.350Z,53.69
2022-11-18T22:16:22.633Z,53.89
2022-11-18T22:18:56.251Z,53.96
2022-11-18T22:21:26.594Z,53.83
2022-11-18T22:23:57.273Z,53.58
2022-11-18T22:26:23.911Z,53.76
2022-11-18T22:28:55.495Z,53.45
2022-11-18T22:31:23.660Z,53.42
2022-11-18T22:33:51.544Z,53.74
2022-11-18T22:36:19.895Z,53.80
2022-11-18T22:38:47.130Z,53.81
2022-11-18T22:41:37.803Z,53.32
2022-11-18T22:44:07.722Z,53.50
2022-11-18T22:46:39.227Z,53.48
2022-11-18T22:49:07.475Z,53.14
2022-11-18T22:51:35.033Z,53.26
2022-11-18T22:54:36.591Z,53.29
2022-11-18T22:56:48.722Z,53.18
2022-11-18T22:59:15.528Z,53.45
2022-11-18T23:01:42.302Z,53.14
2022-11-18T23:04:09.105Z,53.42
2022-11-18T23:06:35.833Z,53.11
2022-11-18T23:09:02.674Z,53.06
2022-11-18T23:11:50.165Z,53.29
2022-11-18T23:14:16.884Z,53.23
2022-11-18T23:16:43.881Z,53.38
2022-11-18T23:19:12.987Z,53.30
2022-11-18T23:21:40.185Z,52.90
2022-11-18T23:24:07.722Z,53.28
2022-11-18T23:26:34.477Z,53.21
2022-11-18T23:29:01.370Z,52.81
2022-11-18T23:31:28.090Z,52.68
2022-11-18T23:33:56.013Z,52.82
2022-11-18T23:36:24.257Z,53.10
2022-11-18T23:38:52.558Z,52.69
2022-11-18T23:41:20.138Z,53.04
2022-11-18T23:43:48.775Z,52.99
2022-11-18T23:46:17.465Z,53.06
2022-11-18T23:48:45.099Z,53.01
2022-11-18T23:51:14.687Z,52.64
2022-11-18T23:53:41.707Z,52.72
2022-11-18T23:56:12.731Z,53.03
2022-11-18T23:58:40.722Z,52.71
